sensor_id;sensor_type;location;lat;lon;timestamp;pressure;altitude;pressure_sealevel;temperature;humidity
54439;BME280;40347;53.848;27.498;2023-05-23T00:01:38;1015.3;;;14;55.5
54439;BME280;40347;53.848;27.498;2023-05-23T00:06:34;1015.3;;;13.9;55.6
54439;BME280;40347;53.848;27.498;2023-05-23T00:11:30;1015.2;;;13.8;56.1
54439;BME280;40347;53.848;27.498;2023-05-23T00:16:34;1015.2;;;13.7;56.4
54439;BME280;40347;53.848;27.498;2023-05-23T00:21:24;1015.2;;;13.6;56.5
54439;BME280;40347;53.848;27.498;2023-05-23T00:26:24;1015.2;;;13.6;57
54439;BME280;40347;53.848;27.498;2023-05-23T00:31:48;1015.2;;;13.5;56.7
54439;BME280;40347;53.848;27.498;2023-05-23T00:36:48;1015.2;;;13.4;57.2
54439;BME280;40347;53.848;27.498;2023-05-23T00:41:24;1015.1;;;13.3;57.6
54439;BME280;40347;53.848;27.498;2023-05-23T00:46:44;1015.2;;;13.3;57.9
54439;BME280;40347;53.848;27.498;2023-05-23T00:51:24;1015.2;;;13.3;57.9
54439;BME280;40347;53.848;27.498;2023-05-23T00:56:24;1015.2;;;13.3;58.2
54439;BME280;40347;53.848;27.498;2023-05-23T01:01:24;1015.3;;;13.4;58.3
54439;BME280;40347;53.848;27.498;2023-05-23T01:06:24;1015.3;;;13.4;58.4
54439;BME280;40347;53.848;27.498;2023-05-23T01:11:35;1015.3;;;13.4;58.6
54439;BME280;40347;53.848;27.498;2023-05-23T01:16:40;1015.3;;;13.5;58.6
54439;BME280;40347;53.848;27.498;2023-05-23T01:21:24;1015.3;;;13.5;58.5
54439;BME280;40347;53.848;27.498;2023-05-23T01:26:30;1015.3;;;13.5;58.7
54439;BME280;40347;53.848;27.498;2023-05-23T01:31:34;1015.2;;;13.6;58.4
54439;BME280;40347;53.848;27.498;2023-05-23T01:36:24;1015.2;;;13.6;58.7
54439;BME280;40347;53.848;27.498;2023-05-23T01:41:48;1015.2;;;13.5;59
54439;BME280;40347;53.848;27.498;2023-05-23T01:46:44;1015.2;;;13.5;59.2
54439;BME280;40347;53.848;27.498;2023-05-23T01:51:30;1015.2;;;13.6;59.1
54439;BME280;40347;53.848;27.498;2023-05-23T01:56:24;1015.2;;;13.5;59.4
54439;BME280;40347;53.848;27.498;2023-05-23T02:01:46;1015.2;;;13.5;59.6
54439;BME280;40347;53.848;27.498;2023-05-23T02:11:24;1015.2;;;13.5;59.6
54439;BME280;40347;53.848;27.498;2023-05-23T02:16:44;1015;;;13.6;59.5
54439;BME280;40347;53.848;27.498;2023-05-23T02:26:36;1015;;;13.7;59.6
54439;BME280;40347;53.848;27.498;2023-05-23T02:37:12;1015.2;;;14.1;59.4
54439;BME280;40347;53.848;27.498;2023-05-23T02:46:34;1015.2;;;14.2;60
54439;BME280;40347;53.848;27.498;2023-05-23T02:51:24;1015;;;14.3;59.3
54439;BME280;40347;53.848;27.498;2023-05-23T02:56:46;1015;;;14.5;59
54439;BME280;40347;53.848;27.498;2023-05-23T03:01:24;1015.1;;;14.7;58.6
54439;BME280;40347;53.848;27.498;2023-05-23T03:06:38;1015.1;;;15;58.2
54439;BME280;40347;53.848;27.498;2023-05-23T03:11:24;1015;;;15.1;57.8
54439;BME280;40347;53.848;27.498;2023-05-23T03:16:24;1015;;;15.3;57.1
54439;BME280;40347;53.848;27.498;2023-05-23T03:26:40;1015;;;15.5;57.3
54439;BME280;40347;53.848;27.498;2023-05-23T03:31:40;1015;;;15.6;57.6
54439;BME280;40347;53.848;27.498;2023-05-23T03:41:38;1014.9;;;16.1;56.5
54439;BME280;40347;53.848;27.498;2023-05-23T03:46:30;1014.9;;;16.1;56.5
54439;BME280;40347;53.848;27.498;2023-05-23T04:41:24;1014.8;;;18.7;51
54439;BME280;40347;53.848;27.498;2023-05-23T04:46:38;1014.9;;;18.7;51
54439;BME280;40347;53.848;27.498;2023-05-23T04:51:24;1014.8;;;18.9;50.5
54439;BME280;40347;53.848;27.498;2023-05-23T04:56:34;1014.8;;;19;49.9
54439;BME280;40347;53.848;27.498;2023-05-23T05:01:24;1014.8;;;19.2;49.5
54439;BME280;40347;53.848;27.498;2023-05-23T05:06:36;1014.8;;;19.4;49.2
54439;BME280;40347;53.848;27.498;2023-05-23T05:11:24;1014.8;;;19.4;49.1
54439;BME280;40347;53.848;27.498;2023-05-23T05:16:24;1014.8;;;19.4;49.5
54439;BME280;40347;53.848;27.498;2023-05-23T05:21:36;1014.7;;;19.6;49.7
54439;BME280;40347;53.848;27.498;2023-05-23T05:26:30;1014.7;;;19.8;49.3
54439;BME280;40347;53.848;27.498;2023-05-23T05:31:24;1014.7;;;19.9;48.9
54439;BME280;40347;53.848;27.498;2023-05-23T05:36:24;1014.7;;;19.9;48.2
54439;BME280;40347;53.848;27.498;2023-05-23T05:41:36;1014.7;;;19.9;48.3
54439;BME280;40347;53.848;27.498;2023-05-23T05:46:34;1014.7;;;20;48.1
54439;BME280;40347;53.848;27.498;2023-05-23T05:51:44;1014.7;;;20.3;47.9
54439;BME280;40347;53.848;27.498;2023-05-23T05:56:42;1014.7;;;20.4;47.9
54439;BME280;40347;53.848;27.498;2023-05-23T06:01:24;1014.6;;;20.5;47.8
54439;BME280;40347;53.848;27.498;2023-05-23T06:06:52;1014.6;;;20.6;47.7
54439;BME280;40347;53.848;27.498;2023-05-23T06:11:36;1014.5;;;20.7;47.9
54439;BME280;40347;53.848;27.498;2023-05-23T06:16:54;1014.6;;;20.9;47.5
54439;BME280;40347;53.848;27.498;2023-05-23T06:21:49;1014.6;;;21;47.1
54439;BME280;40347;53.848;27.498;2023-05-23T06:26:38;1014.6;;;21.2;46.7
54439;BME280;40347;53.848;27.498;2023-05-23T06:31:42;1014.6;;;21.2;46.5
54439;BME280;40347;53.848;27.498;2023-05-23T06:36:48;1014.6;;;21.4;46.4
54439;BME280;40347;53.848;27.498;2023-05-23T06:41:48;1014.5;;;21.5;46.4
54439;BME280;40347;53.848;27.498;2023-05-23T06:46:24;1014.5;;;21.6;45.8
54439;BME280;40347;53.848;27.498;2023-05-23T06:51:24;1014.5;;;21.8;45.6
54439;BME280;40347;53.848;27.498;2023-05-23T06:56:24;1014.5;;;21.9;45
54439;BME280;40347;53.848;27.498;2023-05-23T07:01:34;1014.5;;;22;44
54439;BME280;40347;53.848;27.498;2023-05-23T07:06:40;1014.5;;;22.1;43.4
54439;BME280;40347;53.848;27.498;2023-05-23T07:11:34;1014.5;;;22.2;43.4
54439;BME280;40347;53.848;27.498;2023-05-23T07:16:34;1014.5;;;22.3;43.3
54439;BME280;40347;53.848;27.498;2023-05-23T07:21:44;1014.5;;;22.4;43
54439;BME280;40347;53.848;27.498;2023-05-23T07:26:34;1014.4;;;22.5;42.6
54439;BME280;40347;53.848;27.498;2023-05-23T07:31:34;1014.4;;;22.6;42.4
54439;BME280;40347;53.848;27.498;2023-05-23T07:36:42;1014.4;;;22.7;41.5
54439;BME280;40347;53.848;27.498;2023-05-23T07:41:34;1014.4;;;22.7;41.6
54439;BME280;40347;53.848;27.498;2023-05-23T07:46:38;1014.4;;;22.2;41.8
54439;BME280;40347;53.848;27.498;2023-05-23T07:51:36;1014.4;;;22;42.1
54439;BME280;40347;53.848;27.498;2023-05-23T07:56:38;1014.3;;;22;42.1
54439;BME280;40347;53.848;27.498;2023-05-23T08:01:24;1014.3;;;22.1;42
54439;BME280;40347;53.848;27.498;2023-05-23T08:06:46;1014.2;;;22.2;41.6
54439;BME280;40347;53.848;27.498;2023-05-23T08:11:36;1014.2;;;22.4;41.5
54439;BME280;40347;53.848;27.498;2023-05-23T08:16:34;1014.1;;;22.5;41.3
54439;BME280;40347;53.848;27.498;2023-05-23T08:21:38;1014.1;;;22.6;40.9
54439;BME280;40347;53.848;27.498;2023-05-23T08:26:34;1014.1;;;22.6;40.3
54439;BME280;40347;53.848;27.498;2023-05-23T08:31:24;1014.1;;;22.7;39.7
54439;BME280;40347;53.848;27.498;2023-05-23T08:36:38;1014.1;;;22.8;39.5
54439;BME280;40347;53.848;27.498;2023-05-23T08:41:24;1014;;;23;39.6
54439;BME280;40347;53.848;27.498;2023-05-23T08:46:46;1013.9;;;23.3;38.7
54439;BME280;40347;53.848;27.498;2023-05-23T08:51:24;1013.9;;;23.5;38.3
54439;BME280;40347;53.848;27.498;2023-05-23T08:56:30;1013.9;;;23.7;37.1
54439;BME280;40347;53.848;27.498;2023-05-23T09:01:30;1013.8;;;23.7;36.5
54439;BME280;40347;53.848;27.498;2023-05-23T09:06:34;1013.8;;;23.8;36.5
54439;BME280;40347;53.848;27.498;2023-05-23T09:11:38;1013.7;;;24;36.7
54439;BME280;40347;53.848;27.498;2023-05-23T09:16:36;1013.7;;;24.3;36.4
54439;BME280;40347;53.848;27.498;2023-05-23T09:21:41;1013.6;;;24.7;35.4
54439;BME280;40347;53.848;27.498;2023-05-23T09:26:24;1013.6;;;24.7;35.1
54439;BME280;40347;53.848;27.498;2023-05-23T09:31:25;1013.5;;;24.6;35.2
54439;BME280;40347;53.848;27.498;2023-05-23T09:36:31;1013.5;;;24.7;34.6
54439;BME280;40347;53.848;27.498;2023-05-23T09:41:34;1013.5;;;24.9;35.2
54439;BME280;40347;53.848;27.498;2023-05-23T09:46:38;1013.4;;;25;34.7
54439;BME280;40347;53.848;27.498;2023-05-23T09:51:30;1013.4;;;25.1;33.7
54439;BME280;40347;53.848;27.498;2023-05-23T09:56:24;1013.3;;;25.3;33.8
54439;BME280;40347;53.848;27.498;2023-05-23T10:01:24;1013.3;;;25.4;32.4
54439;BME280;40347;53.848;27.498;2023-05-23T10:06:37;1013.3;;;25.5;32.6
54439;BME280;40347;53.848;27.498;2023-05-23T10:12:42;1013.3;;;25.8;32.5
54439;BME280;40347;53.848;27.498;2023-05-23T10:16:26;1013.3;;;26.1;31.8
54439;BME280;40347;53.848;27.498;2023-05-23T10:21:34;1013.3;;;26.2;30.8
54439;BME280;40347;53.848;27.498;2023-05-23T10:26:24;1013.3;;;26;31.4
54439;BME280;40347;53.848;27.498;2023-05-23T10:31:48;1013.4;;;25.7;32.5
54439;BME280;40347;53.848;27.498;2023-05-23T10:36:54;1013.4;;;25.5;32.7
54439;BME280;40347;53.848;27.498;2023-05-23T10:41:33;1013.3;;;25.4;32
54439;BME280;40347;53.848;27.498;2023-05-23T10:46:25;1013.3;;;25.1;33.1
54439;BME280;40347;53.848;27.498;2023-05-23T10:51:38;1013.3;;;25;32.8
54439;BME280;40347;53.848;27.498;2023-05-23T10:56:36;1013.3;;;25;33.1
54439;BME280;40347;53.848;27.498;2023-05-23T11:01:25;1013.2;;;24.6;33.2
54439;BME280;40347;53.848;27.498;2023-05-23T11:06:58;1013.2;;;24.5;33.6
54439;BME280;40347;53.848;27.498;2023-05-23T11:11:24;1013.2;;;24.4;33.6
54439;BME280;40347;53.848;27.498;2023-05-23T11:16:30;1013.3;;;24.1;33.9
54439;BME280;40347;53.848;27.498;2023-05-23T11:21:49;1013.2;;;24;33.7
54439;BME280;40347;53.848;27.498;2023-05-23T11:26:38;1013.2;;;23.9;32
54439;BME280;40347;53.848;27.498;2023-05-23T11:31:56;1013.2;;;23.8;31.5
54439;BME280;40347;53.848;27.498;2023-05-23T11:36:34;1013.1;;;23.7;32.3
54439;BME280;40347;53.848;27.498;2023-05-23T11:41:24;1013.1;;;23.7;32.1
54439;BME280;40347;53.848;27.498;2023-05-23T11:47:00;1013.1;;;23.5;31.4
54439;BME280;40347;53.848;27.498;2023-05-23T11:51:24;1013.1;;;23.4;31.7
54439;BME280;40347;53.848;27.498;2023-05-23T11:56:39;1013.2;;;23.3;31.5
54439;BME280;40347;53.848;27.498;2023-05-23T12:01:27;1013.1;;;23.1;31.3
54439;BME280;40347;53.848;27.498;2023-05-23T12:06:24;1013.1;;;23.1;31.8
54439;BME280;40347;53.848;27.498;2023-05-23T12:11:24;1013.1;;;23;31.8
54439;BME280;40347;53.848;27.498;2023-05-23T12:16:24;1013;;;22.9;31.7
54439;BME280;40347;53.848;27.498;2023-05-23T12:21:24;1013;;;22.7;31.6
54439;BME280;40347;53.848;27.498;2023-05-23T12:26:24;1013;;;22.7;31.8
54439;BME280;40347;53.848;27.498;2023-05-23T12:31:46;1013;;;22.6;31.8
54439;BME280;40347;53.848;27.498;2023-05-23T12:36:42;1013;;;22.5;32.1
54439;BME280;40347;53.848;27.498;2023-05-23T12:41:48;1012.9;;;22.6;32.3
54439;BME280;40347;53.848;27.498;2023-05-23T12:46:25;1012.9;;;22.6;32.4
54439;BME280;40347;53.848;27.498;2023-05-23T12:51:24;1012.9;;;22.8;32.6
54439;BME280;40347;53.848;27.498;2023-05-23T12:56:32;1012.8;;;23;32.9
54439;BME280;40347;53.848;27.498;2023-05-23T13:01:25;1012.8;;;23.2;32.7
54439;BME280;40347;53.848;27.498;2023-05-23T13:06:44;1012.8;;;23.3;32.8
54439;BME280;40347;53.848;27.498;2023-05-23T13:11:53;1012.7;;;23.4;32.6
54439;BME280;40347;53.848;27.498;2023-05-23T13:16:40;1012.7;;;23.5;32.2
54439;BME280;40347;53.848;27.498;2023-05-23T13:21:38;1012.7;;;23.5;32.1
54439;BME280;40347;53.848;27.498;2023-05-23T13:26:24;1012.7;;;23.7;32.3
54439;BME280;40347;53.848;27.498;2023-05-23T13:31:24;1012.7;;;23.9;32.3
54439;BME280;40347;53.848;27.498;2023-05-23T13:36:38;1012.6;;;24.1;32.1
54439;BME280;40347;53.848;27.498;2023-05-23T13:41:24;1012.6;;;24.4;31.8
54439;BME280;40347;53.848;27.498;2023-05-23T13:46:30;1012.6;;;24.6;31.6
54439;BME280;40347;53.848;27.498;2023-05-23T13:51:34;1012.6;;;24.7;31.9
54439;BME280;40347;53.848;27.498;2023-05-23T13:56:24;1012.5;;;24.8;31.9
54439;BME280;40347;53.848;27.498;2023-05-23T14:01:44;1012.5;;;24.9;31.5
54439;BME280;40347;53.848;27.498;2023-05-23T14:06:24;1012.5;;;24.9;31.4
54439;BME280;40347;53.848;27.498;2023-05-23T14:11:24;1012.5;;;24.8;31.2
54439;BME280;40347;53.848;27.498;2023-05-23T14:16:38;1012.5;;;24.5;31.3
54439;BME280;40347;53.848;27.498;2023-05-23T14:21:40;1012.5;;;24.3;31.7
54439;BME280;40347;53.848;27.498;2023-05-23T14:26:38;1012.4;;;24.1;32
54439;BME280;40347;53.848;27.498;2023-05-23T14:31:25;1012.4;;;23.9;32.3
54439;BME280;40347;53.848;27.498;2023-05-23T14:36:59;1012.5;;;23.6;32.6
54439;BME280;40347;53.848;27.498;2023-05-23T14:41:24;1012.5;;;23.3;33.1
54439;BME280;40347;53.848;27.498;2023-05-23T14:46:36;1012.5;;;23.1;33.6
54439;BME280;40347;53.848;27.498;2023-05-23T14:51:30;1012.4;;;23.1;34.3
54439;BME280;40347;53.848;27.498;2023-05-23T14:56:36;1012.4;;;23.1;33.9
54439;BME280;40347;53.848;27.498;2023-05-23T15:01:30;1012.4;;;23.1;33.8
54439;BME280;40347;53.848;27.498;2023-05-23T15:11:50;1012.3;;;23.1;33.6
54439;BME280;40347;53.848;27.498;2023-05-23T15:16:38;1012.2;;;23.1;33.6
54439;BME280;40347;53.848;27.498;2023-05-23T15:21:36;1012.2;;;23.1;33.6
54439;BME280;40347;53.848;27.498;2023-05-23T15:26:46;1012.1;;;23.1;33
54439;BME280;40347;53.848;27.498;2023-05-23T15:31:50;1012.1;;;23.1;33.5
54439;BME280;40347;53.848;27.498;2023-05-23T15:36:36;1012.1;;;23.1;33.5
54439;BME280;40347;53.848;27.498;2023-05-23T15:41:30;1012.1;;;23.1;33.4
54439;BME280;40347;53.848;27.498;2023-05-23T15:46:24;1012.1;;;23;33.4
54439;BME280;40347;53.848;27.498;2023-05-23T15:51:50;1012;;;22.7;33.6
54439;BME280;40347;53.848;27.498;2023-05-23T15:56:24;1012;;;22.5;33.6
54439;BME280;40347;53.848;27.498;2023-05-23T16:01:24;1012;;;22.4;33.5
54439;BME280;40347;53.848;27.498;2023-05-23T16:06:24;1011.9;;;22.2;33.6
54439;BME280;40347;53.848;27.498;2023-05-23T16:11:58;1012;;;22;33.8
54439;BME280;40347;53.848;27.498;2023-05-23T16:16:30;1011.9;;;21.9;34.3
54439;BME280;40347;53.848;27.498;2023-05-23T16:21:24;1011.9;;;21.8;34.7
54439;BME280;40347;53.848;27.498;2023-05-23T16:26:24;1011.9;;;21.7;35.4
54439;BME280;40347;53.848;27.498;2023-05-23T16:31:25;1011.8;;;21.6;35.9
54439;BME280;40347;53.848;27.498;2023-05-23T16:36:36;1011.8;;;21.5;35.9
54439;BME280;40347;53.848;27.498;2023-05-23T16:41:52;1011.8;;;21.4;36.2
54439;BME280;40347;53.848;27.498;2023-05-23T16:46:48;1011.9;;;21.3;36.5
54439;BME280;40347;53.848;27.498;2023-05-23T16:51:36;1011.9;;;21.2;36.9
54439;BME280;40347;53.848;27.498;2023-05-23T16:56:38;1012;;;21.1;36.7
54439;BME280;40347;53.848;27.498;2023-05-23T17:01:24;1012;;;21;36.5
54439;BME280;40347;53.848;27.498;2023-05-23T17:06:24;1012;;;20.9;36.6
54439;BME280;40347;53.848;27.498;2023-05-23T17:11:44;1012.1;;;20.8;36.9
54439;BME280;40347;53.848;27.498;2023-05-23T17:16:24;1012;;;20.8;37.2
54439;BME280;40347;53.848;27.498;2023-05-23T17:21:50;1012;;;20.7;37.5
54439;BME280;40347;53.848;27.498;2023-05-23T17:26:25;1012;;;20.6;37.8
54439;BME280;40347;53.848;27.498;2023-05-23T17:31:44;1012.1;;;20.5;38
54439;BME280;40347;53.848;27.498;2023-05-23T17:36:42;1012.1;;;20.4;38.1
54439;BME280;40347;53.848;27.498;2023-05-23T17:42:04;1012.1;;;20.3;38.4
54439;BME280;40347;53.848;27.498;2023-05-23T17:46:24;1012;;;20.2;38.6
54439;BME280;40347;53.848;27.498;2023-05-23T17:51:24;1012;;;20;38.9
54439;BME280;40347;53.848;27.498;2023-05-23T17:56:38;1012;;;19.9;39.3
54439;BME280;40347;53.848;27.498;2023-05-23T18:01:38;1012;;;19.8;39.4
54439;BME280;40347;53.848;27.498;2023-05-23T18:06:36;1012.1;;;19.6;39.7
54439;BME280;40347;53.848;27.498;2023-05-23T18:11:24;1012.1;;;19.5;40.3
54439;BME280;40347;53.848;27.498;2023-05-23T18:16:36;1012.2;;;19.4;40.8
54439;BME280;40347;53.848;27.498;2023-05-23T18:21:24;1012.2;;;19.1;41.5
54439;BME280;40347;53.848;27.498;2023-05-23T18:26:24;1012.2;;;18.9;42
54439;BME280;40347;53.848;27.498;2023-05-23T18:31:36;1012.3;;;18.6;42.8
54439;BME280;40347;53.848;27.498;2023-05-23T18:36:24;1012.3;;;18.4;42.9
54439;BME280;40347;53.848;27.498;2023-05-23T18:41:36;1012.3;;;18.2;43.5
54439;BME280;40347;53.848;27.498;2023-05-23T18:46:44;1012.3;;;18.1;43.6
54439;BME280;40347;53.848;27.498;2023-05-23T18:51:38;1012.3;;;17.9;44
54439;BME280;40347;53.848;27.498;2023-05-23T18:56:48;1012.4;;;17.8;44.5
54439;BME280;40347;53.848;27.498;2023-05-23T19:01:30;1012.4;;;17.8;44.5
54439;BME280;40347;53.848;27.498;2023-05-23T19:06:50;1012.4;;;17.7;44.6
54439;BME280;40347;53.848;27.498;2023-05-23T19:11:24;1012.4;;;17.7;45
54439;BME280;40347;53.848;27.498;2023-05-23T19:16:30;1012.4;;;17.6;45.1
54439;BME280;40347;53.848;27.498;2023-05-23T19:21:56;1012.4;;;17.5;45.6
54439;BME280;40347;53.848;27.498;2023-05-23T19:26:42;1012.5;;;17.4;46.3
54439;BME280;40347;53.848;27.498;2023-05-23T19:31:38;1012.5;;;17.3;46.1
54439;BME280;40347;53.848;27.498;2023-05-23T19:36:30;1012.5;;;17.3;46
54439;BME280;40347;53.848;27.498;2023-05-23T19:41:36;1012.5;;;17.3;46.3
54439;BME280;40347;53.848;27.498;2023-05-23T19:46:25;1012.5;;;17.4;46.5
54439;BME280;40347;53.848;27.498;2023-05-23T19:51:24;1012.5;;;17.3;47.1
54439;BME280;40347;53.848;27.498;2023-05-23T19:56:48;1012.5;;;17.2;47.7
54439;BME280;40347;53.848;27.498;2023-05-23T20:01:24;1012.5;;;17.1;48
54439;BME280;40347;53.848;27.498;2023-05-23T20:06:42;1012.6;;;17.1;48.4
54439;BME280;40347;53.848;27.498;2023-05-23T20:11:24;1012.5;;;17;48.3
54439;BME280;40347;53.848;27.498;2023-05-23T20:16:50;1012.6;;;17.1;47.9
54439;BME280;40347;53.848;27.498;2023-05-23T20:21:24;1012.6;;;17;48
54439;BME280;40347;53.848;27.498;2023-05-23T20:26:38;1012.6;;;17.1;48.1
54439;BME280;40347;53.848;27.498;2023-05-23T20:31:24;1012.6;;;17.2;48
54439;BME280;40347;53.848;27.498;2023-05-23T20:36:24;1012.7;;;17.2;48.2
54439;BME280;40347;53.848;27.498;2023-05-23T20:41:34;1012.7;;;17.2;48.3
54439;BME280;40347;53.848;27.498;2023-05-23T20:46:38;1012.7;;;17.2;48.2
54439;BME280;40347;53.848;27.498;2023-05-23T20:51:36;1012.7;;;17.2;48.2
54439;BME280;40347;53.848;27.498;2023-05-23T20:56:24;1012.8;;;17.3;48.1
54439;BME280;40347;53.848;27.498;2023-05-23T21:01:36;1012.9;;;17.3;47.8
54439;BME280;40347;53.848;27.498;2023-05-23T21:06:44;1012.9;;;17.3;47.8
54439;BME280;40347;53.848;27.498;2023-05-23T21:11:24;1012.9;;;17.3;47.8
54439;BME280;40347;53.848;27.498;2023-05-23T21:16:50;1012.9;;;17.3;48.1
54439;BME280;40347;53.848;27.498;2023-05-23T21:21:50;1012.9;;;17.3;47.8
54439;BME280;40347;53.848;27.498;2023-05-23T21:26:36;1012.9;;;17.2;48.1
54439;BME280;40347;53.848;27.498;2023-05-23T21:31:24;1012.9;;;17.1;48.4
54439;BME280;40347;53.848;27.498;2023-05-23T21:36:24;1012.9;;;17;48.6
54439;BME280;40347;53.848;27.498;2023-05-23T21:41:36;1012.9;;;16.9;48.4
54439;BME280;40347;53.848;27.498;2023-05-23T21:46:24;1012.9;;;16.9;48.6
54439;BME280;40347;53.848;27.498;2023-05-23T21:51:36;1012.9;;;16.9;48.6
54439;BME280;40347;53.848;27.498;2023-05-23T21:56:38;1012.9;;;16.8;48.7
54439;BME280;40347;53.848;27.498;2023-05-23T22:01:24;1013;;;16.8;48.7
54439;BME280;40347;53.848;27.498;2023-05-23T22:06:48;1012.9;;;16.7;48.6
54439;BME280;40347;53.848;27.498;2023-05-23T22:11:38;1012.9;;;16.5;49.4
54439;BME280;40347;53.848;27.498;2023-05-23T22:16:24;1013;;;16.4;49.6
54439;BME280;40347;53.848;27.498;2023-05-23T22:21:40;1013;;;16.3;49.8
54439;BME280;40347;53.848;27.498;2023-05-23T22:26:42;1013;;;16.1;50.2
54439;BME280;40347;53.848;27.498;2023-05-23T22:31:40;1013;;;16.1;50
54439;BME280;40347;53.848;27.498;2023-05-23T22:36:24;1013;;;16.1;50.3
54439;BME280;40347;53.848;27.498;2023-05-23T22:41:39;1012.9;;;16;50.7
54439;BME280;40347;53.848;27.498;2023-05-23T22:46:24;1012.9;;;15.9;51
54439;BME280;40347;53.848;27.498;2023-05-23T22:51:36;1012.9;;;15.8;51.2
54439;BME280;40347;53.848;27.498;2023-05-23T22:56:36;1012.9;;;15.7;51.6
54439;BME280;40347;53.848;27.498;2023-05-23T23:01:24;1012.8;;;15.7;51.7
54439;BME280;40347;53.848;27.498;2023-05-23T23:06:24;1012.8;;;15.6;52
54439;BME280;40347;53.848;27.498;2023-05-23T23:11:24;1012.8;;;15.5;52.7
54439;BME280;40347;53.848;27.498;2023-05-23T23:16:50;1012.8;;;15.6;53
54439;BME280;40347;53.848;27.498;2023-05-23T23:21:24;1012.8;;;15.8;52.2
54439;BME280;40347;53.848;27.498;2023-05-23T23:26:30;1012.8;;;15.8;53.1
54439;BME280;40347;53.848;27.498;2023-05-23T23:31:50;1012.8;;;15.8;52.2
54439;BME280;40347;53.848;27.498;2023-05-23T23:36:24;1012.8;;;15.7;52.7
54439;BME280;40347;53.848;27.498;2023-05-23T23:41:24;1012.8;;;15.7;53.1
54439;BME280;40347;53.848;27.498;2023-05-23T23:46:48;1012.8;;;15.7;52.9
54439;BME280;40347;53.848;27.498;2023-05-23T23:51:36;1012.8;;;15.7;53.6
54439;BME280;40347;53.848;27.498;2023-05-23T23:56:24;1012.9;;;15.5;54.1
